createdAt,value
2019-02-21T00:02:45.419Z,6.20
2019-02-21T00:07:36.149Z,6.20
2019-02-21T00:12:25.881Z,6.10
2019-02-21T00:17:17.588Z,6.10
2019-02-21T00:22:09.556Z,6.10
2019-02-21T00:27:01.468Z,6.00
2019-02-21T00:31:53.472Z,6.10
2019-02-21T00:36:43.449Z,6.00
2019-02-21T00:41:34.236Z,6.00
2019-02-21T00:46:24.248Z,5.90
2019-02-21T00:51:13.713Z,5.80
2019-02-21T00:56:05.838Z,5.80
2019-02-21T01:00:57.751Z,5.80
2019-02-21T01:05:49.728Z,5.70
2019-02-21T01:10:41.823Z,5.80
2019-02-21T01:15:33.401Z,5.90
2019-02-21T01:20:25.234Z,6.00
2019-02-21T01:25:17.198Z,6.00
2019-02-21T01:30:08.917Z,6.00
2019-02-21T01:35:00.835Z,6.00
2019-02-21T01:39:52.513Z,5.90
2019-02-21T01:44:44.170Z,5.80
2019-02-21T01:49:36.354Z,5.70
2019-02-21T01:54:24.874Z,5.70
2019-02-21T01:59:16.324Z,5.60
2019-02-21T02:04:07.038Z,5.50
2019-02-21T02:08:56.806Z,5.50
2019-02-21T02:13:48.120Z,5.40
2019-02-21T02:18:38.061Z,5.30
2019-02-21T02:23:31.118Z,5.30
2019-02-21T02:28:21.211Z,5.20
2019-02-21T02:33:13.154Z,5.20
2019-02-21T02:38:05.034Z,5.30
2019-02-21T02:42:56.988Z,5.30
2019-02-21T02:47:49.829Z,5.30
2019-02-21T02:53:11.190Z,5.30
2019-02-21T02:58:07.980Z,5.40
2019-02-21T03:02:57.403Z,5.50
2019-02-21T03:07:49.195Z,5.50
2019-02-21T03:12:40.758Z,5.50
2019-02-21T03:17:32.706Z,5.60
2019-02-21T03:22:24.674Z,5.70
2019-02-21T03:27:16.478Z,5.70
2019-02-21T03:32:08.913Z,5.70
2019-02-21T03:37:00.929Z,5.80
2019-02-21T03:41:53.005Z,5.80
2019-02-21T03:46:44.887Z,5.70
2019-02-21T03:51:36.427Z,5.70
2019-02-21T03:56:28.229Z,5.70
2019-02-21T04:01:20.327Z,5.80
2019-02-21T04:06:11.817Z,5.80
2019-02-21T04:11:04.240Z,5.70
2019-02-21T04:15:56.163Z,5.70
2019-02-21T04:20:50.233Z,5.70
2019-02-21T04:25:43.072Z,5.70
2019-02-21T04:30:33.954Z,5.70
2019-02-21T04:35:29.010Z,5.70
2019-02-21T04:40:22.624Z,5.70
2019-02-21T04:45:14.659Z,5.60
2019-02-21T04:50:20.362Z,5.40
2019-02-21T04:55:24.237Z,5.40
2019-02-21T05:00:13.453Z,5.50
2019-02-21T05:05:06.360Z,5.60
2019-02-21T05:10:01.395Z,5.70
2019-02-21T05:14:52.460Z,5.70
2019-02-21T05:19:42.544Z,5.70
2019-02-21T05:24:34.364Z,5.70
2019-02-21T05:29:23.568Z,5.70
2019-02-21T05:34:12.070Z,5.60
2019-02-21T05:39:02.795Z,5.60
2019-02-21T05:43:52.482Z,5.50
2019-02-21T05:48:50.155Z,5.50
2019-02-21T05:53:38.148Z,5.40
2019-02-21T05:58:28.382Z,5.30
2019-02-21T06:03:19.888Z,5.30
2019-02-21T06:08:08.933Z,5.40
2019-02-21T06:13:00.960Z,5.40
2019-02-21T06:17:50.219Z,5.40
2019-02-21T06:22:40.641Z,5.50
2019-02-21T06:27:30.908Z,5.50
2019-02-21T06:32:24.948Z,5.50
2019-02-21T06:37:15.559Z,5.40
2019-02-21T06:42:05.010Z,5.30
2019-02-21T06:47:02.046Z,5.30
2019-02-21T06:51:53.446Z,5.20
2019-02-21T06:56:42.781Z,5.20
2019-02-21T07:01:33.175Z,5.20
2019-02-21T07:06:32.471Z,5.20
2019-02-21T07:11:20.989Z,5.20
2019-02-21T07:16:13.514Z,5.30
2019-02-21T07:21:03.982Z,5.30
2019-02-21T07:26:12.029Z,5.40
2019-02-21T07:31:02.550Z,5.60
2019-02-21T07:36:10.985Z,5.80
2019-02-21T07:41:08.461Z,5.90
2019-02-21T07:45:58.261Z,6.00
2019-02-21T07:50:48.596Z,6.10
2019-02-21T07:55:46.361Z,6.20
2019-02-21T08:00:35.195Z,6.30
2019-02-21T08:05:26.332Z,6.40
2019-02-21T08:10:33.350Z,6.50
2019-02-21T08:15:22.814Z,6.60
2019-02-21T08:20:16.904Z,7.00
2019-02-21T08:25:19.674Z,7.30
2019-02-21T08:30:10.627Z,7.40
2019-02-21T08:35:02.660Z,7.40
2019-02-21T08:39:52.552Z,7.40
2019-02-21T08:44:47.114Z,7.40
2019-02-21T08:49:44.900Z,7.50
2019-02-21T08:54:34.250Z,7.50
2019-02-21T08:59:23.349Z,7.40
2019-02-21T09:04:27.141Z,7.40
2019-02-21T09:09:17.327Z,7.50
2019-02-21T09:14:09.094Z,7.60
2019-02-21T09:19:01.307Z,7.70
2019-02-21T09:23:52.692Z,7.90
2019-02-21T09:28:44.702Z,8.30
2019-02-21T09:33:51.965Z,8.70
2019-02-21T09:38:57.736Z,9.10
2019-02-21T09:44:02.942Z,9.30
2019-02-21T09:49:07.574Z,9.40
2019-02-21T09:54:15.555Z,9.50
2019-02-21T09:59:08.570Z,9.50
2019-02-21T10:03:58.309Z,9.50
2019-02-21T10:09:05.312Z,9.40
2019-02-21T10:14:11.479Z,9.40
2019-02-21T10:19:13.748Z,9.40
2019-02-21T10:24:17.410Z,9.40
2019-02-21T10:29:21.109Z,9.50
2019-02-21T10:34:24.293Z,9.80
2019-02-21T10:39:27.692Z,10.10
2019-02-21T10:44:33.642Z,10.50
2019-02-21T10:49:39.616Z,10.80
2019-02-21T10:54:45.941Z,11.10
2019-02-21T10:59:49.719Z,11.50
2019-02-21T11:04:56.009Z,11.80
2019-02-21T11:09:59.815Z,12.10
2019-02-21T11:15:06.235Z,12.50
2019-02-21T11:20:10.909Z,12.80
2019-02-21T11:25:16.779Z,13.20
2019-02-21T11:30:23.469Z,13.20
2019-02-21T11:35:28.654Z,13.20
2019-02-21T11:40:33.348Z,13.40
2019-02-21T11:45:39.955Z,13.70
2019-02-21T11:50:42.201Z,13.70
2019-02-21T11:55:31.991Z,13.80
2019-02-21T12:00:38.676Z,13.60
2019-02-21T12:05:44.906Z,13.40
2019-02-21T12:10:51.952Z,13.30
2019-02-21T12:15:59.069Z,13.50
2019-02-21T12:21:04.501Z,13.70
2019-02-21T12:25:53.690Z,13.70
2019-02-21T12:31:00.363Z,13.60
2019-02-21T12:36:06.467Z,13.40
2019-02-21T12:41:10.386Z,13.30
2019-02-21T12:46:15.139Z,13.40
2019-02-21T12:51:13.023Z,13.70
2019-02-21T12:56:16.711Z,14.20
2019-02-21T13:01:20.036Z,13.90
2019-02-21T13:06:23.298Z,13.50
2019-02-21T13:11:12.837Z,13.20
2019-02-21T13:16:16.993Z,13.10
2019-02-21T13:21:05.769Z,13.00
2019-02-21T13:26:11.091Z,12.80
2019-02-21T13:31:16.260Z,12.80
2019-02-21T13:36:20.341Z,12.50
2019-02-21T13:41:25.301Z,12.40
2019-02-21T13:46:40.951Z,12.40
2019-02-21T13:51:44.491Z,12.40
2019-02-21T13:56:47.906Z,12.30
2019-02-21T14:01:51.639Z,12.20
2019-02-21T14:06:54.686Z,12.30
2019-02-21T14:11:58.442Z,12.20
2019-02-21T14:17:00.948Z,12.20
2019-02-21T14:22:04.896Z,12.20
2019-02-21T14:27:09.762Z,12.30
2019-02-21T14:32:14.422Z,12.40
2019-02-21T14:37:19.018Z,12.50
2019-02-21T14:42:07.693Z,12.60
2019-02-21T14:46:58.767Z,12.70
2019-02-21T14:52:05.031Z,12.60
2019-02-21T14:57:09.364Z,12.50
2019-02-21T15:02:13.595Z,12.40
2019-02-21T15:07:16.916Z,12.40
2019-02-21T15:12:20.818Z,12.40
2019-02-21T15:17:25.044Z,12.40
2019-02-21T15:22:28.476Z,12.40
2019-02-21T15:27:30.194Z,12.30
2019-02-21T15:32:34.501Z,12.30
2019-02-21T15:37:40.203Z,12.40
2019-02-21T15:42:44.780Z,12.40
2019-02-21T15:47:48.693Z,12.50
2019-02-21T15:52:54.163Z,12.40
2019-02-21T15:58:05.149Z,12.50
2019-02-21T16:03:08.863Z,12.50
2019-02-21T16:08:06.382Z,12.50
2019-02-21T16:13:11.699Z,12.50
2019-02-21T16:18:20.181Z,12.50
2019-02-21T16:23:23.829Z,12.40
2019-02-21T16:28:27.555Z,12.40
2019-02-21T16:33:31.984Z,12.40
2019-02-21T16:38:35.636Z,12.40
2019-02-21T16:43:33.526Z,12.30
2019-02-21T16:48:39.168Z,12.30
2019-02-21T16:53:41.909Z,12.30
2019-02-21T16:58:48.170Z,12.20
2019-02-21T17:03:46.773Z,12.20
2019-02-21T17:08:54.290Z,12.20
2019-02-21T17:13:57.898Z,12.20
2019-02-21T17:18:47.798Z,12.20
2019-02-21T17:23:47.065Z,12.20
2019-02-21T17:28:53.126Z,12.10
2019-02-21T17:33:41.487Z,12.00
2019-02-21T17:38:40.865Z,12.00
2019-02-21T17:43:48.801Z,11.90
2019-02-21T17:48:52.448Z,11.70
2019-02-21T17:53:56.180Z,11.60
2019-02-21T17:59:00.583Z,11.40
2019-02-21T18:04:04.137Z,11.30
2019-02-21T18:09:09.009Z,11.20
2019-02-21T18:14:07.239Z,11.00
2019-02-21T18:19:12.341Z,10.90
2019-02-21T18:24:15.957Z,10.80
2019-02-21T18:29:04.843Z,10.70
2019-02-21T18:33:55.523Z,10.70
2019-02-21T18:38:56.474Z,10.60
2019-02-21T18:44:00.512Z,10.60
2019-02-21T18:49:04.128Z,10.50
2019-02-21T18:54:08.163Z,10.60
2019-02-21T18:59:11.848Z,10.60
2019-02-21T19:04:14.660Z,10.70
2019-02-21T19:09:03.553Z,10.70
2019-02-21T19:14:09.309Z,10.70
2019-02-21T19:19:13.923Z,10.80
2019-02-21T19:24:17.506Z,10.80
2019-02-21T19:29:20.839Z,10.80
2019-02-21T19:34:26.313Z,10.80
2019-02-21T19:39:15.340Z,10.80
2019-02-21T19:44:21.125Z,10.80
2019-02-21T19:49:25.415Z,10.90
2019-02-21T19:54:13.922Z,10.80
2019-02-21T19:59:20.922Z,10.80
2019-02-21T20:04:24.917Z,10.80
2019-02-21T20:09:28.286Z,10.80
2019-02-21T20:14:26.041Z,10.80
2019-02-21T20:19:30.907Z,10.70
2019-02-21T20:24:34.110Z,10.70
2019-02-21T20:29:37.486Z,10.70
2019-02-21T20:34:24.321Z,10.60
2019-02-21T20:39:30.535Z,10.50
2019-02-21T20:44:35.997Z,10.40
2019-02-21T20:49:40.436Z,10.40
2019-02-21T20:54:29.388Z,10.30
2019-02-21T20:59:35.642Z,10.20
2019-02-21T21:04:39.425Z,10.10
2019-02-21T21:09:42.927Z,10.00
2019-02-21T21:14:31.788Z,9.80
2019-02-21T21:19:20.030Z,9.80
2019-02-21T21:24:09.943Z,9.70
2019-02-21T21:29:01.859Z,9.60
2019-02-21T21:33:53.823Z,9.60
2019-02-21T21:38:55.279Z,9.60
2019-02-21T21:43:52.529Z,9.50
2019-02-21T21:48:56.983Z,9.50
2019-02-21T21:53:43.832Z,9.50
2019-02-21T21:58:33.768Z,9.50
2019-02-21T22:03:23.467Z,9.50
2019-02-21T22:08:29.849Z,9.50
2019-02-21T22:13:16.835Z,9.50
2019-02-21T22:18:25.133Z,9.40
2019-02-21T22:23:21.161Z,9.40
2019-02-21T22:28:19.859Z,9.40
2019-02-21T22:33:11.235Z,9.40
2019-02-21T22:38:03.495Z,9.40
2019-02-21T22:42:55.121Z,9.40
2019-02-21T22:48:00.756Z,9.50
2019-02-21T22:52:49.640Z,9.40
2019-02-21T22:57:42.066Z,9.40
2019-02-21T23:02:33.834Z,9.40
2019-02-21T23:07:31.730Z,9.40
2019-02-21T23:12:19.704Z,9.40
2019-02-21T23:17:27.678Z,9.40
2019-02-21T23:22:31.949Z,9.40
2019-02-21T23:27:33.479Z,9.40
2019-02-21T23:32:36.237Z,9.30
2019-02-21T23:37:41.048Z,9.40
2019-02-21T23:42:30.139Z,9.40
2019-02-21T23:47:21.538Z,9.30
2019-02-21T23:52:16.286Z,9.40
2019-02-21T23:57:08.147Z,9.30
